createdAt,value
2023-02-04T00:00:15.274Z,11.45
2023-02-04T00:02:42.649Z,12.60
2023-02-04T00:05:10.305Z,11.65
2023-02-04T00:07:37.771Z,11.82
2023-02-04T00:10:05.789Z,11.80
2023-02-04T00:12:34.534Z,12.63
2023-02-04T00:15:02.165Z,11.95
2023-02-04T00:17:29.988Z,12.25
2023-02-04T00:19:57.295Z,13.05
2023-02-04T00:22:28.324Z,13.00
2023-02-04T00:24:55.706Z,12.02
2023-02-04T00:27:23.140Z,13.05
2023-02-04T00:29:50.605Z,15.13
2023-02-04T00:32:19.059Z,14.52
2023-02-04T00:34:46.560Z,15.48
2023-02-04T00:37:13.991Z,14.10
2023-02-04T00:39:41.485Z,15.90
2023-02-04T00:42:08.788Z,14.65
2023-02-04T00:44:36.654Z,15.52
2023-02-04T00:47:04.768Z,13.20
2023-02-04T00:49:33.457Z,14.02
2023-02-04T00:52:00.711Z,14.35
2023-02-04T00:54:28.177Z,12.50
2023-02-04T00:56:55.428Z,13.85
2023-02-04T00:59:22.779Z,12.13
2023-02-04T01:01:51.732Z,13.23
2023-02-04T01:04:18.994Z,12.25
2023-02-04T01:06:46.888Z,15.00
2023-02-04T01:09:14.150Z,15.05
2023-02-04T01:11:41.392Z,13.18
2023-02-04T01:14:08.721Z,12.88
2023-02-04T01:16:35.989Z,12.95
2023-02-04T01:19:03.306Z,13.00
2023-02-04T01:21:30.758Z,13.43
2023-02-04T01:23:57.940Z,12.50
2023-02-04T01:26:25.386Z,12.82
2023-02-04T01:28:52.622Z,13.00
2023-02-04T01:31:19.960Z,13.65
2023-02-04T01:33:47.918Z,13.30
2023-02-04T01:36:15.197Z,13.63
2023-02-04T01:38:42.453Z,13.20
2023-02-04T01:41:09.963Z,12.63
2023-02-04T01:43:37.749Z,10.38
2023-02-04T01:46:05.374Z,11.10
2023-02-04T01:48:32.644Z,11.65
2023-02-04T01:51:11.077Z,9.80
2023-02-04T01:53:38.581Z,10.10
2023-02-04T01:56:17.468Z,10.05
2023-02-04T01:58:44.804Z,9.10
2023-02-04T02:01:17.004Z,8.68
2023-02-04T02:03:44.365Z,8.85
2023-02-04T02:06:11.638Z,9.20
2023-02-04T02:08:40.143Z,9.48
2023-02-04T02:11:07.501Z,10.20
2023-02-04T02:13:35.381Z,10.15
2023-02-04T02:16:02.673Z,9.23
2023-02-04T02:18:30.019Z,9.50
2023-02-04T02:20:57.875Z,9.55
2023-02-04T02:23:42.947Z,8.13
2023-02-04T02:26:10.183Z,9.65
2023-02-04T02:28:37.692Z,9.60
2023-02-04T02:31:05.279Z,9.35
2023-02-04T02:33:32.872Z,9.02
2023-02-04T02:36:00.115Z,9.00
2023-02-04T02:38:27.376Z,9.50
2023-02-04T02:40:54.798Z,9.18
2023-02-04T02:43:23.170Z,9.15
2023-02-04T02:45:50.802Z,9.20
2023-02-04T02:48:18.821Z,10.35
2023-02-04T02:50:46.024Z,10.10
2023-02-04T02:53:14.696Z,8.82
2023-02-04T02:55:41.926Z,9.32
2023-02-04T02:58:24.253Z,9.15
2023-02-04T03:00:51.682Z,9.07
2023-02-04T03:03:30.449Z,10.63
2023-02-04T03:06:00.281Z,9.68
2023-02-04T03:08:27.604Z,11.23
2023-02-04T03:10:54.921Z,10.70
2023-02-04T03:13:22.160Z,11.32
2023-02-04T03:15:49.503Z,11.30
2023-02-04T03:18:17.658Z,14.60
2023-02-04T03:20:44.927Z,15.13
2023-02-04T03:23:12.360Z,14.88
2023-02-04T03:25:39.615Z,13.48
2023-02-04T03:28:06.994Z,13.95
2023-02-04T03:30:34.348Z,11.48
2023-02-04T03:33:01.829Z,8.82
2023-02-04T03:35:29.319Z,6.40
2023-02-04T03:37:56.654Z,7.20
2023-02-04T03:40:24.036Z,6.00
2023-02-04T03:42:51.294Z,4.20
2023-02-04T03:45:18.922Z,5.28
2023-02-04T03:47:46.897Z,5.95
2023-02-04T03:50:14.491Z,4.47
2023-02-04T03:52:42.170Z,4.25
2023-02-04T03:55:09.465Z,3.67
2023-02-04T03:57:36.727Z,7.07
2023-02-04T04:00:04.336Z,7.30
2023-02-04T04:02:32.071Z,5.85
2023-02-04T04:04:59.372Z,6.40
2023-02-04T04:07:26.973Z,4.45
2023-02-04T04:09:54.302Z,4.15
2023-02-04T04:12:21.564Z,3.22
2023-02-04T04:14:49.220Z,4.13
2023-02-04T04:17:16.466Z,4.10
2023-02-04T04:19:44.955Z,4.53
2023-02-04T04:22:12.257Z,5.07
2023-02-04T04:24:39.489Z,5.95
2023-02-04T04:27:06.889Z,6.30
2023-02-04T04:29:34.247Z,6.35
2023-02-04T04:32:01.649Z,8.65
2023-02-04T04:34:29.202Z,7.90
2023-02-04T04:36:56.432Z,8.05
2023-02-04T04:39:23.741Z,8.57
2023-02-04T04:41:50.987Z,7.85
2023-02-04T04:44:18.468Z,6.50
2023-02-04T04:46:45.710Z,5.57
2023-02-04T04:49:12.937Z,4.97
2023-02-04T04:51:40.606Z,5.95
2023-02-04T04:54:08.291Z,5.32
2023-02-04T04:56:35.612Z,4.78
2023-02-04T04:59:03.430Z,6.45
2023-02-04T05:01:31.409Z,6.75
2023-02-04T05:03:58.746Z,7.00
2023-02-04T05:06:26.132Z,8.65
2023-02-04T05:08:53.461Z,9.95
2023-02-04T05:11:21.106Z,10.30
2023-02-04T05:13:48.596Z,10.20
2023-02-04T05:16:16.481Z,11.93
2023-02-04T05:18:43.873Z,9.20
2023-02-04T05:21:11.088Z,7.03
2023-02-04T05:23:38.313Z,6.20
2023-02-04T05:26:05.690Z,5.95
2023-02-04T05:28:33.531Z,5.45
2023-02-04T05:31:02.828Z,5.10
2023-02-04T05:33:30.445Z,5.28
2023-02-04T05:35:57.664Z,8.68
2023-02-04T05:38:24.849Z,7.53
2023-02-04T05:40:52.106Z,6.68
2023-02-04T05:43:19.950Z,6.72
2023-02-04T05:45:47.493Z,6.82
2023-02-04T05:48:14.853Z,6.93
2023-02-04T05:50:43.855Z,6.18
2023-02-04T05:53:11.236Z,7.10
2023-02-04T05:55:42.010Z,6.70
2023-02-04T05:58:09.224Z,7.78
2023-02-04T06:00:36.472Z,7.00
2023-02-04T06:03:03.726Z,5.68
2023-02-04T06:05:31.084Z,5.88
2023-02-04T06:08:00.918Z,8.10
2023-02-04T06:10:28.241Z,8.68
2023-02-04T06:12:56.108Z,6.75
2023-02-04T06:15:23.980Z,7.82
2023-02-04T06:17:53.261Z,6.43
2023-02-04T06:20:20.608Z,9.32
2023-02-04T06:22:51.658Z,8.10
2023-02-04T06:25:19.019Z,7.00
2023-02-04T06:27:46.252Z,6.32
2023-02-04T06:30:13.976Z,8.60
2023-02-04T06:32:42.702Z,7.10
2023-02-04T06:35:10.167Z,7.28
2023-02-04T06:37:37.761Z,6.18
2023-02-04T06:40:06.293Z,7.35
2023-02-04T06:42:33.723Z,5.63
2023-02-04T06:45:01.098Z,6.30
2023-02-04T06:47:28.950Z,7.53
2023-02-04T06:49:56.162Z,6.63
2023-02-04T06:52:23.399Z,14.25
2023-02-04T06:54:50.687Z,11.30
2023-02-04T06:57:18.012Z,9.68
2023-02-04T06:59:47.057Z,7.03
2023-02-04T07:02:14.536Z,6.82
2023-02-04T07:04:43.853Z,5.50
2023-02-04T07:07:11.563Z,6.00
2023-02-04T07:09:40.656Z,6.15
2023-02-04T07:12:07.930Z,6.38
2023-02-04T07:14:37.359Z,6.03
2023-02-04T07:17:04.643Z,5.70
2023-02-04T07:19:32.087Z,6.22
2023-02-04T07:21:59.488Z,6.05
2023-02-04T07:24:26.826Z,5.53
2023-02-04T07:26:54.470Z,5.68
2023-02-04T07:29:25.584Z,5.93
2023-02-04T07:31:54.054Z,6.00
2023-02-04T07:34:21.594Z,6.57
2023-02-04T07:36:48.967Z,6.20
2023-02-04T07:39:16.401Z,8.00
2023-02-04T07:41:44.039Z,6.32
2023-02-04T07:44:11.297Z,6.05
2023-02-04T07:46:38.852Z,7.30
2023-02-04T07:49:06.290Z,6.22
2023-02-04T07:51:35.658Z,8.07
2023-02-04T07:54:03.133Z,8.35
2023-02-04T07:56:30.697Z,6.25
2023-02-04T07:58:58.046Z,5.63
2023-02-04T08:01:25.340Z,5.55
2023-02-04T08:03:52.795Z,6.25
2023-02-04T08:06:20.156Z,6.40
2023-02-04T08:08:47.506Z,7.32
2023-02-04T08:11:15.584Z,7.57
2023-02-04T08:13:43.076Z,8.95
2023-02-04T08:16:11.894Z,7.07
2023-02-04T08:18:39.323Z,7.25
2023-02-04T08:21:06.803Z,6.25
2023-02-04T08:23:34.131Z,6.65
2023-02-04T08:26:01.398Z,6.47
2023-02-04T08:28:28.916Z,6.25
2023-02-04T08:30:56.773Z,7.00
2023-02-04T08:33:24.278Z,7.00
2023-02-04T08:35:52.173Z,5.60
2023-02-04T08:38:20.674Z,5.13
2023-02-04T08:40:48.197Z,5.13
2023-02-04T08:43:15.449Z,5.30
2023-02-04T08:45:42.792Z,6.78
2023-02-04T08:48:10.062Z,6.20
2023-02-04T08:50:39.057Z,6.43
2023-02-04T08:53:07.378Z,6.22
2023-02-04T08:55:34.930Z,6.65
2023-02-04T08:58:03.068Z,5.47
2023-02-04T09:00:31.138Z,6.18
2023-02-04T09:02:59.221Z,5.70
2023-02-04T09:05:26.451Z,6.32
2023-02-04T09:07:53.845Z,5.78
2023-02-04T09:10:21.195Z,6.25
2023-02-04T09:12:48.438Z,5.50
2023-02-04T09:15:15.666Z,4.95
2023-02-04T09:17:44.143Z,4.95
2023-02-04T09:20:11.815Z,5.72
2023-02-04T09:22:39.336Z,5.40
2023-02-04T09:25:07.218Z,6.43
2023-02-04T09:27:34.522Z,6.53
2023-02-04T09:30:01.822Z,5.47
2023-02-04T09:32:29.164Z,5.10
2023-02-04T09:34:56.393Z,4.88
2023-02-04T09:37:27.005Z,5.47
2023-02-04T09:39:54.853Z,5.13
2023-02-04T09:42:22.636Z,5.45
2023-02-04T09:44:50.307Z,6.25
2023-02-04T09:47:17.520Z,5.50
2023-02-04T09:49:46.985Z,5.55
2023-02-04T09:52:14.860Z,4.78
2023-02-04T09:54:42.130Z,6.32
2023-02-04T09:57:17.803Z,5.32
2023-02-04T09:59:45.198Z,4.68
2023-02-04T10:02:25.550Z,5.35
2023-02-04T10:04:57.580Z,4.55
2023-02-04T10:07:26.567Z,4.07
2023-02-04T10:09:54.390Z,5.13
2023-02-04T10:12:21.778Z,4.65
2023-02-04T10:14:49.361Z,6.13
2023-02-04T10:17:20.231Z,6.00
2023-02-04T10:19:47.505Z,6.15
2023-02-04T10:22:19.686Z,6.82
2023-02-04T10:24:47.047Z,5.68
2023-02-04T10:27:16.299Z,3.92
2023-02-04T10:29:44.091Z,4.78
2023-02-04T10:32:31.658Z,4.97
2023-02-04T10:35:00.475Z,5.25
2023-02-04T10:37:28.026Z,6.95
2023-02-04T10:39:55.745Z,6.88
2023-02-04T10:42:24.901Z,5.90
2023-02-04T10:44:52.601Z,5.47
2023-02-04T10:47:24.796Z,5.68
2023-02-04T10:50:06.247Z,5.70
2023-02-04T10:52:38.627Z,6.35
2023-02-04T10:55:07.672Z,5.97
2023-02-04T10:57:36.625Z,6.55
2023-02-04T11:00:04.843Z,6.50
2023-02-04T11:02:47.992Z,6.45
2023-02-04T11:05:23.539Z,5.78
2023-02-04T11:07:50.993Z,5.35
2023-02-04T11:10:23.205Z,4.93
2023-02-04T11:12:53.705Z,5.47
2023-02-04T11:15:50.301Z,5.25
2023-02-04T11:18:20.702Z,5.43
2023-02-04T11:20:49.232Z,6.53
2023-02-04T11:23:22.705Z,5.50
2023-02-04T11:25:50.289Z,5.78
2023-02-04T11:28:25.708Z,6.03
2023-02-04T11:31:00.772Z,4.97
2023-02-04T11:33:38.283Z,5.90
2023-02-04T11:36:11.430Z,5.57
2023-02-04T11:38:38.893Z,5.32
2023-02-04T11:41:06.232Z,5.50
2023-02-04T11:43:35.006Z,5.10
2023-02-04T11:46:13.957Z,5.80
2023-02-04T11:48:41.799Z,5.03
2023-02-04T11:51:14.556Z,5.95
2023-02-04T11:53:41.844Z,6.55
2023-02-04T11:56:18.171Z,5.43
2023-02-04T11:58:45.796Z,4.78
2023-02-04T12:01:25.150Z,5.63
2023-02-04T12:04:22.860Z,7.28
2023-02-04T12:07:01.833Z,7.18
2023-02-04T12:09:33.405Z,8.32
2023-02-04T12:12:01.979Z,7.78
2023-02-04T12:14:33.197Z,6.63
2023-02-04T12:17:00.715Z,5.72
2023-02-04T12:19:28.147Z,6.35
2023-02-04T12:21:55.807Z,5.05
2023-02-04T12:24:23.070Z,4.93
2023-02-04T12:26:51.753Z,5.00
2023-02-04T12:29:19.077Z,4.70
2023-02-04T12:31:46.360Z,5.53
2023-02-04T12:34:13.697Z,4.25
2023-02-04T12:36:41.134Z,4.25
2023-02-04T12:39:08.581Z,4.65
2023-02-04T12:41:36.782Z,4.60
2023-02-04T12:44:04.543Z,4.13
2023-02-04T12:46:32.109Z,5.40
2023-02-04T12:48:59.340Z,4.97
2023-02-04T12:51:26.646Z,5.57
2023-02-04T12:53:53.855Z,5.47
2023-02-04T12:56:24.153Z,4.75
2023-02-04T12:58:51.525Z,6.95
2023-02-04T13:01:18.812Z,4.85
2023-02-04T13:03:46.057Z,6.38
2023-02-04T13:06:13.448Z,5.60
2023-02-04T13:08:40.712Z,5.43
2023-02-04T13:11:07.936Z,5.15
2023-02-04T13:13:36.057Z,5.28
2023-02-04T13:16:04.776Z,4.93
2023-02-04T13:18:34.024Z,6.05
2023-02-04T13:21:01.810Z,6.70
2023-02-04T13:23:29.733Z,6.68
2023-02-04T13:25:56.951Z,5.18
2023-02-04T13:28:24.273Z,5.60
2023-02-04T13:30:51.754Z,5.38
2023-02-04T13:33:19.195Z,6.57
2023-02-04T13:35:46.570Z,6.78
2023-02-04T13:38:13.805Z,5.80
2023-02-04T13:40:41.089Z,5.07
2023-02-04T13:43:08.454Z,5.35
2023-02-04T13:45:36.040Z,5.78
2023-02-04T13:48:03.578Z,6.70
2023-02-04T13:50:31.785Z,6.85
2023-02-04T13:52:59.187Z,5.70
2023-02-04T13:55:26.485Z,5.55
2023-02-04T13:57:54.199Z,6.05
2023-02-04T14:00:21.498Z,6.43
2023-02-04T14:02:48.916Z,7.85
2023-02-04T14:05:16.227Z,7.10
2023-02-04T14:07:44.229Z,6.28
2023-02-04T14:10:11.775Z,5.25
2023-02-04T14:12:42.104Z,6.25
2023-02-04T14:15:09.750Z,7.28
2023-02-04T14:17:37.399Z,8.40
2023-02-04T14:20:05.575Z,8.25
2023-02-04T14:22:33.110Z,9.02
2023-02-04T14:25:00.522Z,7.35
2023-02-04T14:27:27.809Z,7.85
2023-02-04T14:29:55.102Z,9.63
2023-02-04T14:32:23.311Z,9.30
2023-02-04T14:34:53.425Z,7.88
2023-02-04T14:37:20.722Z,8.55
2023-02-04T14:39:48.076Z,8.65
2023-02-04T14:42:15.362Z,9.00
2023-02-04T14:44:42.761Z,9.15
2023-02-04T14:47:10.201Z,10.67
2023-02-04T14:49:38.129Z,9.07
2023-02-04T14:52:05.592Z,10.73
2023-02-04T14:54:32.944Z,10.63
2023-02-04T14:57:00.886Z,9.98
2023-02-04T14:59:28.624Z,9.10
2023-02-04T15:01:56.129Z,5.90
2023-02-04T15:04:24.277Z,7.32
2023-02-04T15:06:53.965Z,8.10
2023-02-04T15:09:21.366Z,7.55
2023-02-04T15:11:48.771Z,7.75
2023-02-04T15:14:16.099Z,7.75
2023-02-04T15:16:44.677Z,7.63
2023-02-04T15:19:12.016Z,6.90
2023-02-04T15:21:39.750Z,6.53
2023-02-04T15:26:51.840Z,7.15
2023-02-04T15:29:19.299Z,7.10
2023-02-04T15:31:46.882Z,6.90
2023-02-04T15:34:14.469Z,7.95
2023-02-04T15:36:41.683Z,5.97
2023-02-04T15:39:09.216Z,7.45
2023-02-04T15:41:36.718Z,8.05
2023-02-04T15:44:05.622Z,6.80
2023-02-04T15:46:34.287Z,9.75
2023-02-04T15:49:02.008Z,8.27
2023-02-04T15:51:29.281Z,8.75
2023-02-04T15:53:56.552Z,7.60
2023-02-04T15:56:23.845Z,7.18
2023-02-04T15:58:51.092Z,9.18
2023-02-04T16:01:18.983Z,8.13
2023-02-04T16:03:47.266Z,7.90
2023-02-04T16:06:14.632Z,7.88
2023-02-04T16:08:42.411Z,6.07
2023-02-04T16:11:09.616Z,7.53
2023-02-04T16:13:38.150Z,7.78
2023-02-04T16:16:05.837Z,7.47
2023-02-04T16:18:33.232Z,7.20
2023-02-04T16:21:00.536Z,7.10
2023-02-04T16:23:27.764Z,7.35
2023-02-04T16:25:55.009Z,6.30
2023-02-04T16:28:22.282Z,7.05
2023-02-04T16:30:49.971Z,7.63
2023-02-04T16:33:17.620Z,7.40
2023-02-04T16:36:05.341Z,7.55
2023-02-04T16:38:32.951Z,6.78
2023-02-04T16:41:00.411Z,7.32
2023-02-04T16:43:27.658Z,6.88
2023-02-04T16:45:54.940Z,6.78
2023-02-04T16:48:22.164Z,7.90
2023-02-04T16:50:53.718Z,7.13
2023-02-04T16:53:21.082Z,6.78
2023-02-04T16:55:49.189Z,7.82
2023-02-04T16:58:17.041Z,7.32
2023-02-04T17:00:44.808Z,7.97
2023-02-04T17:03:12.424Z,8.30
2023-02-04T17:05:40.033Z,7.75
2023-02-04T17:08:07.567Z,7.05
2023-02-04T17:10:53.513Z,8.75
2023-02-04T17:13:20.933Z,9.18
2023-02-04T17:15:48.418Z,6.75
2023-02-04T17:18:15.701Z,8.02
2023-02-04T17:20:42.963Z,8.05
2023-02-04T17:23:10.343Z,7.88
2023-02-04T17:25:38.106Z,8.13
2023-02-04T17:28:05.582Z,8.20
2023-02-04T17:30:33.043Z,8.70
2023-02-04T17:33:01.254Z,8.82
2023-02-04T17:35:28.518Z,8.50
2023-02-04T17:37:57.886Z,6.90
2023-02-04T17:40:25.207Z,7.55
2023-02-04T17:42:52.499Z,8.77
2023-02-04T17:45:20.030Z,6.93
2023-02-04T17:47:47.534Z,6.82
2023-02-04T17:50:14.800Z,7.18
2023-02-04T17:52:41.993Z,6.30
2023-02-04T17:55:29.906Z,6.05
2023-02-04T17:57:59.294Z,6.20
2023-02-04T18:00:29.054Z,6.50
2023-02-04T18:02:56.633Z,7.15
2023-02-04T18:05:28.061Z,7.63
2023-02-04T18:10:41.514Z,6.55
2023-02-04T18:13:17.299Z,6.50
2023-02-04T18:15:50.219Z,5.75
2023-02-04T18:18:20.816Z,7.07
2023-02-04T18:20:48.474Z,8.82
2023-02-04T18:23:18.052Z,7.55
2023-02-04T18:25:45.784Z,6.20
2023-02-04T18:28:20.079Z,7.43
2023-02-04T18:30:48.389Z,8.75
2023-02-04T18:33:15.719Z,7.70
2023-02-04T18:35:47.064Z,7.45
2023-02-04T18:38:23.585Z,7.07
2023-02-04T18:40:53.626Z,8.20
2023-02-04T18:43:27.568Z,8.50
2023-02-04T18:45:56.773Z,8.27
2023-02-04T18:48:24.385Z,6.60
2023-02-04T18:50:53.574Z,7.38
2023-02-04T18:53:26.590Z,7.32
2023-02-04T18:55:55.275Z,8.05
2023-02-04T18:58:36.124Z,10.65
2023-02-04T19:01:25.394Z,10.77
2023-02-04T19:04:22.796Z,9.43
2023-02-04T19:06:52.299Z,9.77
2023-02-04T19:09:32.741Z,9.75
2023-02-04T19:12:01.042Z,9.40
2023-02-04T19:14:39.742Z,9.15
2023-02-04T19:17:24.290Z,9.70
2023-02-04T19:19:56.989Z,11.13
2023-02-04T19:22:43.074Z,10.23
2023-02-04T19:25:22.551Z,9.02
2023-02-04T19:28:19.108Z,9.75
2023-02-04T19:30:47.623Z,8.75
2023-02-04T19:33:27.029Z,10.32
2023-02-04T19:35:54.398Z,9.25
2023-02-04T19:38:24.629Z,9.48
2023-02-04T19:40:53.095Z,10.40
2023-02-04T19:43:33.821Z,11.15
2023-02-04T19:46:01.414Z,10.27
2023-02-04T19:48:38.437Z,8.75
2023-02-04T19:51:27.471Z,7.80
2023-02-04T19:54:11.069Z,9.60
2023-02-04T19:56:39.583Z,7.63
2023-02-04T19:59:26.634Z,7.78
2023-02-04T20:01:58.638Z,8.98
2023-02-04T20:04:26.248Z,8.60
2023-02-04T20:06:53.777Z,8.27
2023-02-04T20:09:23.698Z,8.13
2023-02-04T20:12:22.285Z,8.05
2023-02-04T20:14:52.424Z,9.07
2023-02-04T20:17:27.322Z,9.30
2023-02-04T20:19:54.963Z,10.32
2023-02-04T20:22:36.933Z,9.43
2023-02-04T20:25:19.670Z,10.48
2023-02-04T20:27:49.432Z,11.43
2023-02-04T20:30:16.589Z,10.75
2023-02-04T20:32:45.572Z,12.20
2023-02-04T20:35:12.752Z,12.02
2023-02-04T20:37:41.287Z,11.15
2023-02-04T20:40:20.159Z,10.15
2023-02-04T20:42:52.839Z,11.68
2023-02-04T20:45:34.270Z,11.60
2023-02-04T20:50:52.796Z,11.27
2023-02-04T20:53:39.029Z,10.20
2023-02-04T20:56:18.368Z,12.77
2023-02-04T20:58:45.878Z,10.57
2023-02-04T21:01:25.308Z,11.10
2023-02-04T21:03:52.718Z,10.32
2023-02-04T21:06:28.362Z,10.68
2023-02-04T21:08:56.793Z,10.82
2023-02-04T21:11:24.113Z,11.77
2023-02-04T21:13:52.722Z,10.23
2023-02-04T21:16:20.467Z,10.80
2023-02-04T21:18:48.105Z,10.38
2023-02-04T21:21:16.163Z,11.23
2023-02-04T21:23:43.493Z,11.57
2023-02-04T21:26:10.753Z,9.98
2023-02-04T21:28:38.242Z,8.95
2023-02-04T21:31:05.715Z,9.25
2023-02-04T21:33:33.393Z,10.98
2023-02-04T21:36:00.679Z,10.02
2023-02-04T21:38:28.064Z,8.63
2023-02-04T21:40:55.263Z,9.60
2023-02-04T21:43:22.736Z,9.55
2023-02-04T21:45:50.252Z,9.82
2023-02-04T21:48:17.505Z,10.52
2023-02-04T21:50:44.996Z,10.25
2023-02-04T21:53:12.702Z,10.77
2023-02-04T21:55:40.904Z,9.82
2023-02-04T21:58:08.947Z,10.82
2023-02-04T22:00:36.302Z,8.48
2023-02-04T22:03:03.978Z,8.80
2023-02-04T22:05:31.577Z,8.95
2023-02-04T22:07:59.968Z,7.00
2023-02-04T22:10:27.482Z,8.07
2023-02-04T22:13:33.790Z,9.23
2023-02-04T22:16:01.365Z,7.65
2023-02-04T22:18:29.877Z,8.95
2023-02-04T22:20:58.002Z,8.93
2023-02-04T22:23:25.853Z,9.15
2023-02-04T22:25:53.880Z,9.65
2023-02-04T22:28:21.498Z,9.13
2023-02-04T22:30:49.234Z,10.02
2023-02-04T22:33:16.694Z,10.73
2023-02-04T22:35:45.858Z,10.35
2023-02-04T22:38:13.134Z,8.85
2023-02-04T22:40:40.940Z,9.23
2023-02-04T22:43:08.908Z,8.60
2023-02-04T22:45:36.370Z,7.35
2023-02-04T22:48:03.970Z,7.32
2023-02-04T22:50:31.381Z,7.05
2023-02-04T22:52:58.842Z,6.95
2023-02-04T22:55:26.109Z,7.22
2023-02-04T22:57:53.344Z,6.72
2023-02-04T23:00:20.686Z,7.40
2023-02-04T23:02:49.720Z,7.15
2023-02-04T23:05:17.170Z,6.97
2023-02-04T23:07:44.946Z,7.05
2023-02-04T23:10:13.326Z,7.00
2023-02-04T23:13:00.427Z,8.05
2023-02-04T23:15:27.704Z,8.48
2023-02-04T23:17:55.743Z,7.40
2023-02-04T23:20:22.992Z,8.23
2023-02-04T23:22:50.344Z,8.25
2023-02-04T23:25:17.685Z,7.88
2023-02-04T23:27:45.162Z,9.30
2023-02-04T23:30:13.139Z,7.45
2023-02-04T23:32:40.659Z,7.82
2023-02-04T23:35:08.272Z,7.93
2023-02-04T23:37:35.727Z,7.68
2023-02-04T23:40:03.598Z,7.80
2023-02-04T23:42:31.516Z,8.50
2023-02-04T23:44:58.813Z,8.75
2023-02-04T23:47:26.085Z,8.80
2023-02-04T23:49:53.300Z,8.32
2023-02-04T23:52:20.821Z,9.27
2023-02-04T23:54:48.127Z,8.60
2023-02-04T23:57:15.440Z,9.40
2023-02-04T23:59:42.755Z,8.38
